sensor_id;sensor_type;location;lat;lon;timestamp;pressure;altitude;pressure_sealevel;temperature;humidity
21365;BME280;10841;42.832;23.196;2022-07-06T00:00:45;95362.56;;;22.30;76.73
21365;BME280;10841;42.832;23.196;2022-07-06T00:03:11;95348.66;;;22.23;76.96
21365;BME280;10841;42.832;23.196;2022-07-06T00:05:36;95357.34;;;22.23;76.26
21365;BME280;10841;42.832;23.196;2022-07-06T00:08:01;95362.16;;;22.26;75.48
21365;BME280;10841;42.832;23.196;2022-07-06T00:10:27;95352.94;;;22.05;76.78
21365;BME280;10841;42.832;23.196;2022-07-06T00:12:52;95353.34;;;21.95;76.67
21365;BME280;10841;42.832;23.196;2022-07-06T00:15:18;95353.75;;;21.79;77.36
21365;BME280;10841;42.832;23.196;2022-07-06T00:17:43;95354.19;;;21.70;77.57
21365;BME280;10841;42.832;23.196;2022-07-06T00:20:09;95349.72;;;21.70;77.96
21365;BME280;10841;42.832;23.196;2022-07-06T00:22:34;95350.56;;;21.71;78.50
21365;BME280;10841;42.832;23.196;2022-07-06T00:25:00;95343.28;;;21.73;78.94
21365;BME280;10841;42.832;23.196;2022-07-06T00:27:25;95344.91;;;21.80;78.44
21365;BME280;10841;42.832;23.196;2022-07-06T00:29:51;95330.41;;;21.78;78.10
21365;BME280;10841;42.832;23.196;2022-07-06T00:32:16;95319.28;;;21.76;78.06
21365;BME280;10841;42.832;23.196;2022-07-06T00:34:41;95322.31;;;21.79;78.48
21365;BME280;10841;42.832;23.196;2022-07-06T00:37:07;95329.56;;;21.84;78.33
21365;BME280;10841;42.832;23.196;2022-07-06T00:39:33;95335.63;;;21.84;78.18
21365;BME280;10841;42.832;23.196;2022-07-06T00:41:58;95333.78;;;21.91;77.99
21365;BME280;10841;42.832;23.196;2022-07-06T00:44:24;95323.53;;;21.90;77.75
21365;BME280;10841;42.832;23.196;2022-07-06T00:46:50;95306.59;;;21.79;77.76
21365;BME280;10841;42.832;23.196;2022-07-06T00:49:15;95301.34;;;21.86;77.74
21365;BME280;10841;42.832;23.196;2022-07-06T00:51:59;95302.34;;;21.85;77.98
21365;BME280;10841;42.832;23.196;2022-07-06T00:54:26;95305.78;;;21.85;77.22
21365;BME280;10841;42.832;23.196;2022-07-06T00:56:53;95313.44;;;21.87;76.16
21365;BME280;10841;42.832;23.196;2022-07-06T00:59:19;95313.47;;;21.67;77.23
21365;BME280;10841;42.832;23.196;2022-07-06T01:01:45;95312.88;;;21.65;76.85
21365;BME280;10841;42.832;23.196;2022-07-06T01:04:10;95328.34;;;21.54;77.45
21365;BME280;10841;42.832;23.196;2022-07-06T01:06:36;95324.72;;;21.29;77.79
21365;BME280;10841;42.832;23.196;2022-07-06T01:09:01;95315.44;;;21.07;79.09
21365;BME280;10841;42.832;23.196;2022-07-06T01:11:27;95326.66;;;20.88;79.48
21365;BME280;10841;42.832;23.196;2022-07-06T01:13:54;95329.22;;;20.75;80.79
21365;BME280;10841;42.832;23.196;2022-07-06T01:16:20;95310.28;;;20.66;81.51
21365;BME280;10841;42.832;23.196;2022-07-06T01:18:45;95320.16;;;20.71;81.74
21365;BME280;10841;42.832;23.196;2022-07-06T01:21:14;95304.03;;;20.61;81.36
21365;BME280;10841;42.832;23.196;2022-07-06T01:23:44;95321.78;;;20.72;81.66
21365;BME280;10841;42.832;23.196;2022-07-06T01:26:16;95319.59;;;20.75;81.43
21365;BME280;10841;42.832;23.196;2022-07-06T01:28:43;95310.47;;;20.65;81.65
21365;BME280;10841;42.832;23.196;2022-07-06T01:31:16;95318.56;;;20.70;81.06
21365;BME280;10841;42.832;23.196;2022-07-06T01:33:43;95318.53;;;20.63;81.36
21365;BME280;10841;42.832;23.196;2022-07-06T01:36:09;95316.34;;;20.67;81.21
21365;BME280;10841;42.832;23.196;2022-07-06T01:38:51;95319.34;;;20.64;80.96
21365;BME280;10841;42.832;23.196;2022-07-06T01:41:17;95311.69;;;20.62;80.98
21365;BME280;10841;42.832;23.196;2022-07-06T01:43:43;95317.31;;;20.59;80.62
21365;BME280;10841;42.832;23.196;2022-07-06T01:46:09;95297.97;;;20.54;81.14
21365;BME280;10841;42.832;23.196;2022-07-06T01:48:34;95293.31;;;20.43;80.99
21365;BME280;10841;42.832;23.196;2022-07-06T01:51:00;95303.16;;;20.41;81.34
21365;BME280;10841;42.832;23.196;2022-07-06T01:53:25;95306.22;;;20.51;81.19
21365;BME280;10841;42.832;23.196;2022-07-06T01:55:51;95299.78;;;20.47;81.04
21365;BME280;10841;42.832;23.196;2022-07-06T01:58:16;95303.00;;;20.49;81.01
21365;BME280;10841;42.832;23.196;2022-07-06T02:00:42;95299.97;;;20.45;80.66
21365;BME280;10841;42.832;23.196;2022-07-06T02:03:07;95297.16;;;20.47;80.90
21365;BME280;10841;42.832;23.196;2022-07-06T02:05:33;95304.41;;;20.45;80.65
21365;BME280;10841;42.832;23.196;2022-07-06T02:07:58;95305.16;;;20.39;80.55
21365;BME280;10841;42.832;23.196;2022-07-06T02:10:23;95307.97;;;20.37;80.34
21365;BME280;10841;42.832;23.196;2022-07-06T02:12:49;95297.13;;;20.34;80.58
21365;BME280;10841;42.832;23.196;2022-07-06T02:15:14;95297.72;;;20.29;80.66
21365;BME280;10841;42.832;23.196;2022-07-06T02:17:40;95290.22;;;20.20;80.93
21365;BME280;10841;42.832;23.196;2022-07-06T02:20:06;95316.78;;;20.23;80.97
21365;BME280;10841;42.832;23.196;2022-07-06T02:22:31;95307.28;;;20.16;81.04
21365;BME280;10841;42.832;23.196;2022-07-06T02:24:57;95315.75;;;20.18;80.91
21365;BME280;10841;42.832;23.196;2022-07-06T02:27:22;95306.47;;;20.15;80.86
21365;BME280;10841;42.832;23.196;2022-07-06T02:29:48;95329.19;;;20.08;81.13
21365;BME280;10841;42.832;23.196;2022-07-06T02:32:13;95315.84;;;20.03;81.51
21365;BME280;10841;42.832;23.196;2022-07-06T02:34:38;95305.78;;;20.00;81.22
21365;BME280;10841;42.832;23.196;2022-07-06T02:37:04;95307.78;;;19.98;81.01
21365;BME280;10841;42.832;23.196;2022-07-06T02:39:29;95306.13;;;19.91;81.19
21365;BME280;10841;42.832;23.196;2022-07-06T02:41:55;95307.72;;;19.85;81.37
21365;BME280;10841;42.832;23.196;2022-07-06T02:44:20;95305.09;;;19.85;81.61
21365;BME280;10841;42.832;23.196;2022-07-06T02:46:46;95320.41;;;19.95;81.76
21365;BME280;10841;42.832;23.196;2022-07-06T02:49:11;95309.34;;;19.93;81.39
21365;BME280;10841;42.832;23.196;2022-07-06T02:51:36;95323.88;;;20.02;81.11
21365;BME280;10841;42.832;23.196;2022-07-06T02:54:02;95323.06;;;20.01;81.24
21365;BME280;10841;42.832;23.196;2022-07-06T02:56:27;95319.03;;;19.99;80.73
21365;BME280;10841;42.832;23.196;2022-07-06T02:58:53;95323.69;;;20.03;80.49
21365;BME280;10841;42.832;23.196;2022-07-06T03:01:19;95313.06;;;20.05;80.69
21365;BME280;10841;42.832;23.196;2022-07-06T03:03:44;95319.72;;;20.07;80.20
21365;BME280;10841;42.832;23.196;2022-07-06T03:06:10;95305.34;;;19.97;79.84
21365;BME280;10841;42.832;23.196;2022-07-06T03:08:35;95310.22;;;20.00;79.24
21365;BME280;10841;42.832;23.196;2022-07-06T03:11:01;95314.69;;;20.06;79.56
21365;BME280;10841;42.832;23.196;2022-07-06T03:13:27;95306.16;;;19.97;79.40
21365;BME280;10841;42.832;23.196;2022-07-06T03:15:53;95326.34;;;20.10;79.36
21365;BME280;10841;42.832;23.196;2022-07-06T03:18:18;95326.97;;;20.05;79.10
21365;BME280;10841;42.832;23.196;2022-07-06T03:20:44;95322.91;;;20.03;79.52
21365;BME280;10841;42.832;23.196;2022-07-06T03:23:09;95320.66;;;20.00;79.26
21365;BME280;10841;42.832;23.196;2022-07-06T03:25:35;95336.59;;;20.05;78.88
21365;BME280;10841;42.832;23.196;2022-07-06T03:28:00;95329.28;;;20.00;78.60
21365;BME280;10841;42.832;23.196;2022-07-06T03:30:26;95320.78;;;19.85;78.58
21365;BME280;10841;42.832;23.196;2022-07-06T03:32:51;95321.19;;;19.89;78.57
21365;BME280;10841;42.832;23.196;2022-07-06T03:35:17;95335.88;;;19.90;79.41
21365;BME280;10841;42.832;23.196;2022-07-06T03:37:42;95322.13;;;19.81;79.24
21365;BME280;10841;42.832;23.196;2022-07-06T03:40:08;95313.91;;;19.78;79.10
21365;BME280;10841;42.832;23.196;2022-07-06T03:42:35;95350.38;;;19.99;79.38
21365;BME280;10841;42.832;23.196;2022-07-06T03:45:01;95338.88;;;19.93;79.67
21365;BME280;10841;42.832;23.196;2022-07-06T03:47:26;95343.34;;;19.99;80.19
21365;BME280;10841;42.832;23.196;2022-07-06T03:49:51;95345.78;;;20.01;80.27
21365;BME280;10841;42.832;23.196;2022-07-06T03:52:17;95348.91;;;20.11;79.96
21365;BME280;10841;42.832;23.196;2022-07-06T03:54:42;95340.03;;;20.05;80.36
21365;BME280;10841;42.832;23.196;2022-07-06T03:57:08;95328.97;;;20.10;80.27
21365;BME280;10841;42.832;23.196;2022-07-06T03:59:33;95348.13;;;20.17;80.51
21365;BME280;10841;42.832;23.196;2022-07-06T04:01:59;95341.31;;;20.22;80.61
21365;BME280;10841;42.832;23.196;2022-07-06T04:04:24;95353.19;;;20.25;80.13
21365;BME280;10841;42.832;23.196;2022-07-06T04:06:49;95338.47;;;20.17;79.90
21365;BME280;10841;42.832;23.196;2022-07-06T04:09:15;95346.06;;;20.12;80.32
21365;BME280;10841;42.832;23.196;2022-07-06T04:11:40;95337.63;;;20.10;80.96
21365;BME280;10841;42.832;23.196;2022-07-06T04:14:06;95347.38;;;20.29;80.90
21365;BME280;10841;42.832;23.196;2022-07-06T04:16:31;95338.13;;;20.27;81.24
21365;BME280;10841;42.832;23.196;2022-07-06T04:18:57;95342.97;;;20.36;81.44
21365;BME280;10841;42.832;23.196;2022-07-06T04:21:22;95348.63;;;20.40;81.38
21365;BME280;10841;42.832;23.196;2022-07-06T04:23:48;95357.91;;;20.49;81.26
21365;BME280;10841;42.832;23.196;2022-07-06T04:26:13;95355.13;;;20.50;81.23
21365;BME280;10841;42.832;23.196;2022-07-06T04:28:38;95369.66;;;20.66;81.80
21365;BME280;10841;42.832;23.196;2022-07-06T04:31:04;95378.94;;;20.75;81.36
21365;BME280;10841;42.832;23.196;2022-07-06T04:33:29;95374.94;;;20.79;80.71
21365;BME280;10841;42.832;23.196;2022-07-06T04:35:55;95379.78;;;20.82;81.24
21365;BME280;10841;42.832;23.196;2022-07-06T04:38:20;95374.31;;;20.77;80.99
21365;BME280;10841;42.832;23.196;2022-07-06T04:40:46;95369.28;;;20.75;80.99
21365;BME280;10841;42.832;23.196;2022-07-06T04:43:12;95381.84;;;20.86;81.05
21365;BME280;10841;42.832;23.196;2022-07-06T04:45:37;95389.72;;;20.93;80.65
21365;BME280;10841;42.832;23.196;2022-07-06T04:48:04;95399.78;;;20.96;80.70
21365;BME280;10841;42.832;23.196;2022-07-06T04:50:30;95378.25;;;20.94;80.41
21365;BME280;10841;42.832;23.196;2022-07-06T04:52:57;95383.31;;;21.02;80.64
21365;BME280;10841;42.832;23.196;2022-07-06T04:55:26;95380.69;;;21.02;80.78
21365;BME280;10841;42.832;23.196;2022-07-06T04:57:52;95389.31;;;21.02;81.17
21365;BME280;10841;42.832;23.196;2022-07-06T05:00:17;95391.97;;;21.09;80.90
21365;BME280;10841;42.832;23.196;2022-07-06T05:02:46;95390.75;;;21.05;80.85
21365;BME280;10841;42.832;23.196;2022-07-06T05:05:12;95393.19;;;21.13;80.73
21365;BME280;10841;42.832;23.196;2022-07-06T05:07:37;95400.66;;;21.16;80.81
21365;BME280;10841;42.832;23.196;2022-07-06T05:10:10;95383.91;;;21.10;80.13
21365;BME280;10841;42.832;23.196;2022-07-06T05:12:39;95412.31;;;21.20;80.10
21365;BME280;10841;42.832;23.196;2022-07-06T05:15:05;95402.50;;;21.28;79.99
21365;BME280;10841;42.832;23.196;2022-07-06T05:17:30;95414.59;;;21.29;80.09
21365;BME280;10841;42.832;23.196;2022-07-06T05:19:56;95422.44;;;21.36;80.16
21365;BME280;10841;42.832;23.196;2022-07-06T05:22:21;95399.25;;;21.26;80.24
21365;BME280;10841;42.832;23.196;2022-07-06T05:24:47;95413.78;;;21.35;79.68
21365;BME280;10841;42.832;23.196;2022-07-06T05:27:12;95425.09;;;21.42;79.45
21365;BME280;10841;42.832;23.196;2022-07-06T05:29:38;95408.13;;;21.32;79.19
21365;BME280;10841;42.832;23.196;2022-07-06T05:32:03;95418.84;;;21.43;79.79
21365;BME280;10841;42.832;23.196;2022-07-06T05:34:29;95428.72;;;21.48;79.79
21365;BME280;10841;42.832;23.196;2022-07-06T05:36:55;95428.72;;;21.41;79.00
21365;BME280;10841;42.832;23.196;2022-07-06T05:39:20;95406.91;;;21.28;79.53
21365;BME280;10841;42.832;23.196;2022-07-06T05:41:48;95417.81;;;21.38;79.03
21365;BME280;10841;42.832;23.196;2022-07-06T05:44:13;95426.28;;;21.46;78.64
21365;BME280;10841;42.832;23.196;2022-07-06T05:46:39;95442.63;;;21.55;78.73
21365;BME280;10841;42.832;23.196;2022-07-06T05:49:04;95437.59;;;21.53;78.81
21365;BME280;10841;42.832;23.196;2022-07-06T05:51:48;95433.16;;;21.54;78.47
21365;BME280;10841;42.832;23.196;2022-07-06T05:54:17;95435.16;;;21.58;77.40
21365;BME280;10841;42.832;23.196;2022-07-06T05:56:43;95435.16;;;21.52;78.20
21365;BME280;10841;42.832;23.196;2022-07-06T05:59:08;95439.63;;;21.58;78.53
21365;BME280;10841;42.832;23.196;2022-07-06T06:01:34;95435.97;;;21.52;78.24
21365;BME280;10841;42.832;23.196;2022-07-06T06:03:59;95437.19;;;21.50;77.42
21365;BME280;10841;42.832;23.196;2022-07-06T06:06:28;95439.59;;;21.51;77.67
21365;BME280;10841;42.832;23.196;2022-07-06T06:08:56;95425.88;;;21.49;77.58
21365;BME280;10841;42.832;23.196;2022-07-06T06:11:22;95432.94;;;21.49;77.52
21365;BME280;10841;42.832;23.196;2022-07-06T06:13:47;95426.88;;;21.42;76.24
21365;BME280;10841;42.832;23.196;2022-07-06T06:16:12;95430.31;;;21.36;77.07
21365;BME280;10841;42.832;23.196;2022-07-06T06:18:38;95435.34;;;21.44;76.97
21365;BME280;10841;42.832;23.196;2022-07-06T06:21:06;95440.00;;;21.55;77.01
21365;BME280;10841;42.832;23.196;2022-07-06T06:23:39;95420.25;;;21.39;77.20
21365;BME280;10841;42.832;23.196;2022-07-06T06:26:13;95422.22;;;21.37;76.90
21365;BME280;10841;42.832;23.196;2022-07-06T06:29:00;95414.38;;;21.37;77.58
21365;BME280;10841;42.832;23.196;2022-07-06T06:34:37;95423.47;;;21.41;77.33
21365;BME280;10841;42.832;23.196;2022-07-06T06:41:25;95424.00;;;21.11;77.51
21365;BME280;10841;42.832;23.196;2022-07-06T06:44:08;95423.78;;;21.06;77.69
21365;BME280;10841;42.832;23.196;2022-07-06T06:46:34;95414.16;;;21.13;78.04
21365;BME280;10841;42.832;23.196;2022-07-06T06:48:59;95414.75;;;21.15;77.71
21365;BME280;10841;42.832;23.196;2022-07-06T06:51:31;95413.56;;;21.17;77.35
21365;BME280;10841;42.832;23.196;2022-07-06T06:54:08;95422.63;;;21.28;77.42
21365;BME280;10841;42.832;23.196;2022-07-06T07:00:41;95422.66;;;21.41;76.55
21365;BME280;10841;42.832;23.196;2022-07-06T07:04:04;95420.63;;;21.49;76.32
21365;BME280;10841;42.832;23.196;2022-07-06T07:29:20;95413.19;;;22.43;73.48
21365;BME280;10841;42.832;23.196;2022-07-06T07:31:46;95417.03;;;22.34;73.80
21365;BME280;10841;42.832;23.196;2022-07-06T07:37:18;95411.00;;;22.14;73.86
21365;BME280;10841;42.832;23.196;2022-07-06T07:39:58;95416.06;;;22.22;73.57
21365;BME280;10841;42.832;23.196;2022-07-06T07:42:24;95416.06;;;22.22;73.19
21365;BME280;10841;42.832;23.196;2022-07-06T07:45:00;95394.84;;;22.24;73.66
21365;BME280;10841;42.832;23.196;2022-07-06T07:47:53;95419.84;;;22.52;73.50
21365;BME280;10841;42.832;23.196;2022-07-06T07:50:21;95410.31;;;22.64;73.90
21365;BME280;10841;42.832;23.196;2022-07-06T07:52:54;95401.41;;;22.72;73.00
21365;BME280;10841;42.832;23.196;2022-07-06T08:09:04;95408.88;;;22.75;71.67
21365;BME280;10841;42.832;23.196;2022-07-06T08:12:01;95398.78;;;22.78;70.96
21365;BME280;10841;42.832;23.196;2022-07-06T08:14:29;95420.91;;;22.95;69.18
21365;BME280;10841;42.832;23.196;2022-07-06T08:16:55;95410.88;;;22.79;70.42
21365;BME280;10841;42.832;23.196;2022-07-06T08:19:20;95420.53;;;22.85;70.18
21365;BME280;10841;42.832;23.196;2022-07-06T08:21:46;95409.25;;;22.78;70.36
21365;BME280;10841;42.832;23.196;2022-07-06T08:24:11;95416.53;;;22.70;71.16
21365;BME280;10841;42.832;23.196;2022-07-06T08:26:37;95417.75;;;22.74;71.27
21365;BME280;10841;42.832;23.196;2022-07-06T08:29:03;95421.16;;;22.81;70.16
21365;BME280;10841;42.832;23.196;2022-07-06T08:31:29;95418.75;;;22.79;70.20
21365;BME280;10841;42.832;23.196;2022-07-06T08:33:55;95424.56;;;22.88;70.64
21365;BME280;10841;42.832;23.196;2022-07-06T08:36:21;95418.69;;;22.92;70.57
21365;BME280;10841;42.832;23.196;2022-07-06T08:38:48;95414.63;;;22.96;69.53
21365;BME280;10841;42.832;23.196;2022-07-06T08:41:17;95395.06;;;22.92;70.43
21365;BME280;10841;42.832;23.196;2022-07-06T08:43:43;95410.97;;;22.97;70.18
21365;BME280;10841;42.832;23.196;2022-07-06T08:46:09;95409.19;;;22.98;68.67
21365;BME280;10841;42.832;23.196;2022-07-06T08:48:38;95402.09;;;22.98;70.52
21365;BME280;10841;42.832;23.196;2022-07-06T08:51:05;95413.19;;;23.07;71.33
21365;BME280;10841;42.832;23.196;2022-07-06T08:53:31;95409.94;;;23.05;71.18
21365;BME280;10841;42.832;23.196;2022-07-06T08:55:57;95410.47;;;23.26;70.44
21365;BME280;10841;42.832;23.196;2022-07-06T08:58:26;95417.50;;;23.32;69.22
21365;BME280;10841;42.832;23.196;2022-07-06T09:00:56;95416.75;;;23.25;69.35
21365;BME280;10841;42.832;23.196;2022-07-06T09:03:22;95419.03;;;23.15;70.23
21365;BME280;10841;42.832;23.196;2022-07-06T09:05:50;95421.22;;;23.18;69.17
21365;BME280;10841;42.832;23.196;2022-07-06T09:08:18;95422.03;;;23.19;69.33
21365;BME280;10841;42.832;23.196;2022-07-06T09:10:43;95413.72;;;23.22;69.69
21365;BME280;10841;42.832;23.196;2022-07-06T09:13:09;95411.50;;;23.25;69.13
21365;BME280;10841;42.832;23.196;2022-07-06T09:15:35;95412.91;;;23.21;67.39
21365;BME280;10841;42.832;23.196;2022-07-06T09:18:03;95411.78;;;23.04;68.09
21365;BME280;10841;42.832;23.196;2022-07-06T09:20:29;95408.38;;;22.91;67.64
21365;BME280;10841;42.832;23.196;2022-07-06T09:22:59;95429.66;;;22.76;68.25
21365;BME280;10841;42.832;23.196;2022-07-06T09:25:26;95429.66;;;22.83;68.55
21365;BME280;10841;42.832;23.196;2022-07-06T09:27:52;95421.38;;;22.79;70.03
21365;BME280;10841;42.832;23.196;2022-07-06T09:30:21;95431.41;;;22.95;68.60
21365;BME280;10841;42.832;23.196;2022-07-06T09:32:51;95424.31;;;23.02;69.07
21365;BME280;10841;42.832;23.196;2022-07-06T09:35:27;95423.47;;;23.08;68.41
21365;BME280;10841;42.832;23.196;2022-07-06T09:38:11;95418.28;;;22.95;67.85
21365;BME280;10841;42.832;23.196;2022-07-06T09:40:45;95410.63;;;22.94;68.34
21365;BME280;10841;42.832;23.196;2022-07-06T09:43:23;95421.69;;;23.02;67.55
21365;BME280;10841;42.832;23.196;2022-07-06T09:45:52;95405.69;;;23.04;68.73
21365;BME280;10841;42.832;23.196;2022-07-06T09:48:19;95416.34;;;23.22;68.51
21365;BME280;10841;42.832;23.196;2022-07-06T09:50:55;95410.63;;;23.31;67.16
21365;BME280;10841;42.832;23.196;2022-07-06T09:53:23;95398.28;;;23.38;67.75
21365;BME280;10841;42.832;23.196;2022-07-06T09:55:52;95395.13;;;23.54;67.34
21365;BME280;10841;42.832;23.196;2022-07-06T09:58:18;95399.38;;;23.55;65.35
21365;BME280;10841;42.832;23.196;2022-07-06T10:00:47;95398.38;;;23.56;65.30
21365;BME280;10841;42.832;23.196;2022-07-06T10:03:13;95411.22;;;23.64;65.67
21365;BME280;10841;42.832;23.196;2022-07-06T10:05:41;95418.41;;;23.75;65.82
21365;BME280;10841;42.832;23.196;2022-07-06T10:08:08;95414.34;;;23.86;64.25
21365;BME280;10841;42.832;23.196;2022-07-06T10:10:38;95407.19;;;23.93;64.43
21365;BME280;10841;42.832;23.196;2022-07-06T10:13:04;95395.00;;;23.98;64.49
21365;BME280;10841;42.832;23.196;2022-07-06T10:15:32;95395.13;;;24.10;63.71
21365;BME280;10841;42.832;23.196;2022-07-06T10:17:59;95383.66;;;24.22;64.43
21365;BME280;10841;42.832;23.196;2022-07-06T10:20:28;95388.63;;;24.12;63.86
21365;BME280;10841;42.832;23.196;2022-07-06T10:22:54;95407.19;;;24.17;63.13
21365;BME280;10841;42.832;23.196;2022-07-06T10:25:23;95389.69;;;24.05;62.15
21365;BME280;10841;42.832;23.196;2022-07-06T10:27:49;95403.91;;;24.22;64.65
21365;BME280;10841;42.832;23.196;2022-07-06T10:30:15;95394.06;;;24.35;64.50
21365;BME280;10841;42.832;23.196;2022-07-06T10:32:42;95385.56;;;24.51;63.14
21365;BME280;10841;42.832;23.196;2022-07-06T10:35:09;95385.16;;;24.54;63.07
21365;BME280;10841;42.832;23.196;2022-07-06T10:37:34;95387.13;;;24.59;63.06
21365;BME280;10841;42.832;23.196;2022-07-06T10:40:01;95395.41;;;24.80;63.46
21365;BME280;10841;42.832;23.196;2022-07-06T10:42:57;95361.53;;;24.83;62.73
21365;BME280;10841;42.832;23.196;2022-07-06T10:50:40;95375.47;;;25.02;59.87
21365;BME280;10841;42.832;23.196;2022-07-06T10:53:14;95374.44;;;25.03;60.50
21365;BME280;10841;42.832;23.196;2022-07-06T10:55:43;95376.09;;;25.15;60.26
21365;BME280;10841;42.832;23.196;2022-07-06T10:58:09;95367.56;;;25.02;60.94
21365;BME280;10841;42.832;23.196;2022-07-06T11:00:54;95379.47;;;25.04;59.30
21365;BME280;10841;42.832;23.196;2022-07-06T11:03:34;95366.38;;;24.98;60.01
21365;BME280;10841;42.832;23.196;2022-07-06T11:06:15;95375.03;;;25.23;60.23
21365;BME280;10841;42.832;23.196;2022-07-06T11:16:31;95365.47;;;25.51;59.30
21365;BME280;10841;42.832;23.196;2022-07-06T11:19:12;95373.75;;;25.66;58.60
21365;BME280;10841;42.832;23.196;2022-07-06T11:21:43;95366.66;;;25.78;57.24
21365;BME280;10841;42.832;23.196;2022-07-06T11:24:12;95366.13;;;25.88;56.62
21365;BME280;10841;42.832;23.196;2022-07-06T11:26:38;95343.03;;;25.72;56.53
21365;BME280;10841;42.832;23.196;2022-07-06T11:29:05;95351.34;;;25.98;58.16
21365;BME280;10841;42.832;23.196;2022-07-06T11:31:36;95359.16;;;26.16;56.87
21365;BME280;10841;42.832;23.196;2022-07-06T11:34:07;95360.50;;;26.19;56.47
21365;BME280;10841;42.832;23.196;2022-07-06T11:36:33;95350.63;;;26.14;55.60
21365;BME280;10841;42.832;23.196;2022-07-06T11:38:59;95356.00;;;26.31;54.61
21365;BME280;10841;42.832;23.196;2022-07-06T11:41:25;95350.84;;;26.24;54.27
21365;BME280;10841;42.832;23.196;2022-07-06T11:43:50;95348.22;;;26.36;55.13
21365;BME280;10841;42.832;23.196;2022-07-06T11:46:35;95338.91;;;26.45;53.72
21365;BME280;10841;42.832;23.196;2022-07-06T11:49:06;95335.22;;;26.34;52.52
21365;BME280;10841;42.832;23.196;2022-07-06T11:51:38;95332.25;;;26.31;52.49
21365;BME280;10841;42.832;23.196;2022-07-06T11:54:23;95338.66;;;26.46;53.84
21365;BME280;10841;42.832;23.196;2022-07-06T11:56:57;95332.69;;;26.62;51.38
21365;BME280;10841;42.832;23.196;2022-07-06T11:59:30;95330.25;;;26.72;53.71
21365;BME280;10841;42.832;23.196;2022-07-06T12:02:06;95331.72;;;26.80;53.47
21365;BME280;10841;42.832;23.196;2022-07-06T12:04:33;95335.78;;;26.71;52.76
21365;BME280;10841;42.832;23.196;2022-07-06T12:07:01;95315.41;;;26.71;52.29
21365;BME280;10841;42.832;23.196;2022-07-06T12:12:49;95308.22;;;26.95;51.50
21365;BME280;10841;42.832;23.196;2022-07-06T12:15:14;95337.34;;;27.11;51.54
21365;BME280;10841;42.832;23.196;2022-07-06T12:17:40;95331.44;;;27.21;50.56
21365;BME280;10841;42.832;23.196;2022-07-06T12:20:11;95322.03;;;27.41;50.58
21365;BME280;10841;42.832;23.196;2022-07-06T12:22:37;95328.13;;;27.42;49.97
21365;BME280;10841;42.832;23.196;2022-07-06T12:25:02;95319.47;;;27.46;51.07
21365;BME280;10841;42.832;23.196;2022-07-06T12:27:33;95320.13;;;27.53;49.54
21365;BME280;10841;42.832;23.196;2022-07-06T12:30:08;95321.97;;;27.52;50.95
21365;BME280;10841;42.832;23.196;2022-07-06T12:32:34;95318.84;;;27.55;49.62
21365;BME280;10841;42.832;23.196;2022-07-06T12:35:06;95321.72;;;27.54;48.70
21365;BME280;10841;42.832;23.196;2022-07-06T12:37:32;95305.84;;;27.54;48.75
21365;BME280;10841;42.832;23.196;2022-07-06T12:39:58;95315.50;;;27.76;48.96
21365;BME280;10841;42.832;23.196;2022-07-06T12:42:23;95309.22;;;27.66;46.13
21365;BME280;10841;42.832;23.196;2022-07-06T12:44:52;95309.16;;;27.45;47.04
21365;BME280;10841;42.832;23.196;2022-07-06T12:47:24;95308.91;;;27.62;47.56
21365;BME280;10841;42.832;23.196;2022-07-06T12:50:07;95302.91;;;27.83;47.57
21365;BME280;10841;42.832;23.196;2022-07-06T12:52:33;95294.59;;;27.75;47.15
21365;BME280;10841;42.832;23.196;2022-07-06T12:55:00;95283.88;;;27.53;46.77
21365;BME280;10841;42.832;23.196;2022-07-06T12:57:26;95295.38;;;27.75;46.36
21365;BME280;10841;42.832;23.196;2022-07-06T13:02:19;95300.34;;;27.88;46.26
21365;BME280;10841;42.832;23.196;2022-07-06T13:05:04;95285.09;;;27.79;45.93
21365;BME280;10841;42.832;23.196;2022-07-06T13:07:32;95286.09;;;27.73;47.01
21365;BME280;10841;42.832;23.196;2022-07-06T13:10:04;95290.94;;;27.97;46.42
21365;BME280;10841;42.832;23.196;2022-07-06T13:12:30;95281.66;;;27.95;45.47
21365;BME280;10841;42.832;23.196;2022-07-06T13:14:55;95280.06;;;27.77;45.06
21365;BME280;10841;42.832;23.196;2022-07-06T13:17:21;95280.06;;;27.77;45.29
21365;BME280;10841;42.832;23.196;2022-07-06T13:19:47;95264.06;;;27.72;46.50
21365;BME280;10841;42.832;23.196;2022-07-06T13:22:13;95271.53;;;27.75;46.68
21365;BME280;10841;42.832;23.196;2022-07-06T13:24:39;95263.28;;;27.72;45.03
21365;BME280;10841;42.832;23.196;2022-07-06T13:27:05;95284.22;;;27.90;45.54
21365;BME280;10841;42.832;23.196;2022-07-06T13:29:31;95266.41;;;27.85;46.50
21365;BME280;10841;42.832;23.196;2022-07-06T13:31:57;95269.31;;;27.84;45.22
21365;BME280;10841;42.832;23.196;2022-07-06T13:34:23;95263.41;;;27.65;45.00
21365;BME280;10841;42.832;23.196;2022-07-06T13:36:49;95273.28;;;27.70;46.17
21365;BME280;10841;42.832;23.196;2022-07-06T13:39:15;95267.72;;;27.83;45.92
21365;BME280;10841;42.832;23.196;2022-07-06T13:41:41;95280.00;;;28.10;46.03
21365;BME280;10841;42.832;23.196;2022-07-06T13:44:07;95250.25;;;28.03;44.69
21365;BME280;10841;42.832;23.196;2022-07-06T13:46:35;95267.38;;;27.96;44.61
21365;BME280;10841;42.832;23.196;2022-07-06T13:49:03;95270.41;;;27.88;44.30
21365;BME280;10841;42.832;23.196;2022-07-06T13:51:29;95277.66;;;27.76;45.45
21365;BME280;10841;42.832;23.196;2022-07-06T13:53:58;95250.53;;;27.52;45.57
21365;BME280;10841;42.832;23.196;2022-07-06T13:56:26;95260.97;;;27.75;46.05
21365;BME280;10841;42.832;23.196;2022-07-06T13:58:52;95269.28;;;28.00;45.78
21365;BME280;10841;42.832;23.196;2022-07-06T14:01:20;95265.25;;;27.98;44.90
21365;BME280;10841;42.832;23.196;2022-07-06T14:03:46;95267.69;;;27.99;45.52